Time;durP1;ratioP1;P1;durP2;ratioP2;P2;SDS_P1;SDS_P2;PMS_P1;PMS_P2;Temp;Humidity;BMP_temperature;BMP_pressure;BME280_temperature;BME280_humidity;BME280_pressure;Samples;Min_cycle;Max_cycle;Signal;HPM_P1;HPM_P2
2023/06/27 00:00:52;;;;;;;4.32;2.13;;;18.30;54.10;;;;;;5068473;28;20403;-64
2023/06/27 00:03:18;;;;;;;3.40;1.70;;;18.30;54.10;;;;;;5040367;28;20053;-66
2023/06/27 00:05:43;;;;;;;6.07;1.98;;;18.20;54.10;;;;;;5058056;28;20102;-66
2023/06/27 00:08:09;;;;;;;5.53;1.75;;;18.20;54.10;;;;;;5057958;28;20475;-66
2023/06/27 00:10:35;;;;;;;2.90;1.70;;;18.20;54.10;;;;;;5057854;28;20037;-66
2023/06/27 00:13:01;;;;;;;3.67;2.00;;;18.20;54.10;;;;;;5041289;28;20037;-66
2023/06/27 00:15:29;;;;;;;3.80;2.13;;;18.10;54.10;;;;;;5057908;28;20044;-66
2023/06/27 00:17:55;;;;;;;3.40;1.67;;;18.10;54.10;;;;;;5057659;28;20040;-66
2023/06/27 00:20:21;;;;;;;3.72;2.30;;;18.10;54.10;;;;;;5075684;28;20040;-66
2023/06/27 00:22:47;;;;;;;2.63;1.70;;;18.00;54.10;;;;;;5057149;28;20471;-66
2023/06/27 00:25:12;;;;;;;3.92;2.05;;;18.00;54.10;;;;;;5058112;28;20040;-66
2023/06/27 00:27:38;;;;;;;4.30;2.13;;;18.00;54.20;;;;;;5057548;28;20510;-66
2023/06/27 00:30:05;;;;;;;6.18;2.17;;;17.90;54.20;;;;;;5057822;28;20032;-66
2023/06/27 00:32:31;;;;;;;3.28;1.70;;;17.90;54.20;;;;;;5057748;28;20390;-67
2023/06/27 00:34:57;;;;;;;4.05;1.70;;;17.90;54.30;;;;;;5057947;28;20046;-67
2023/06/27 00:37:22;;;;;;;5.30;2.47;;;17.80;54.30;;;;;;5057607;28;20795;-67
2023/06/27 00:39:48;;;;;;;4.93;1.92;;;17.80;54.40;;;;;;5075282;28;20067;-67
2023/06/27 00:42:14;;;;;;;4.28;2.10;;;17.80;54.40;;;;;;5057450;28;20068;-66
2023/06/27 00:44:40;;;;;;;4.50;2.00;;;17.70;54.40;;;;;;5056706;28;20094;-66
2023/06/27 00:47:06;;;;;;;4.70;2.25;;;17.70;54.50;;;;;;5040878;28;20094;-66
2023/06/27 00:49:31;;;;;;;3.60;1.75;;;17.70;54.50;;;;;;5040593;28;20548;-66
2023/06/27 00:51:57;;;;;;;3.92;1.77;;;17.70;54.60;;;;;;5056910;28;20048;-66
2023/06/27 00:54:23;;;;;;;4.22;1.67;;;17.70;54.70;;;;;;5056993;28;20492;-66
2023/06/27 00:56:56;;;;;;;3.60;1.80;;;17.60;54.80;;;;;;5056990;28;20131;-66
2023/06/27 00:59:22;;;;;;;3.53;1.88;;;17.60;54.70;;;;;;5056965;28;20043;-66
2023/06/27 01:01:48;;;;;;;3.28;1.63;;;17.60;54.70;;;;;;5056969;28;20044;-66
2023/06/27 01:04:14;;;;;;;4.30;1.67;;;17.60;54.70;;;;;;5054813;28;20088;-66
2023/06/27 01:07:06;;;;;;;4.00;1.88;;;17.60;54.70;;;;;;5056894;28;20079;-66
2023/06/27 01:09:46;;;;;;;3.55;1.52;;;17.60;54.80;;;;;;5052047;28;20102;-66
2023/06/27 01:12:42;;;;;;;3.60;1.60;;;17.50;54.70;;;;;;5056462;28;20049;-66
2023/06/27 01:15:08;;;;;;;2.65;1.92;;;17.50;54.70;;;;;;5056846;28;20068;-67
2023/06/27 01:17:36;;;;;;;4.93;2.20;;;17.50;54.80;;;;;;5039855;28;20041;-67
2023/06/27 01:20:02;;;;;;;4.70;2.00;;;17.50;54.80;;;;;;5056748;28;20399;-67
2023/06/27 01:22:36;;;;;;;3.45;2.00;;;17.50;54.90;;;;;;5040077;28;20037;-67
2023/06/27 01:25:03;;;;;;;3.28;1.70;;;17.50;54.90;;;;;;5056721;28;20380;-67
2023/06/27 01:27:29;;;;;;;4.38;1.95;;;17.40;54.90;;;;;;5074928;28;20075;-67
2023/06/27 01:29:55;;;;;;;4.80;1.65;;;17.40;54.90;;;;;;5055984;28;20086;-67
2023/06/27 01:32:38;;;;;;;3.55;1.80;;;17.40;54.90;;;;;;5039903;28;20041;-66
2023/06/27 01:35:07;;;;;;;3.85;1.60;;;17.40;55.00;;;;;;5056320;28;20045;-66
2023/06/27 01:37:39;;;;;;;3.13;1.70;;;17.30;55.00;;;;;;5056205;28;20037;-66
2023/06/27 01:40:17;;;;;;;3.05;1.58;;;17.30;55.00;;;;;;5074056;28;20082;-66
2023/06/27 01:42:46;;;;;;;5.57;2.10;;;17.30;55.10;;;;;;5056344;28;20098;-66
2023/06/27 01:45:12;;;;;;;4.07;1.73;;;17.30;55.20;;;;;;5055725;28;20033;-66
2023/06/27 01:47:43;;;;;;;3.42;1.58;;;17.30;55.20;;;;;;5056318;28;20033;-66
2023/06/27 01:50:10;;;;;;;3.95;2.03;;;17.30;55.20;;;;;;5055752;28;20040;-66
2023/06/27 01:52:36;;;;;;;2.42;1.48;;;17.20;55.20;;;;;;5056009;28;20044;-65
2023/06/27 01:55:02;;;;;;;4.13;2.00;;;17.20;55.20;;;;;;5054487;28;20052;-65
2023/06/27 01:57:28;;;;;;;3.65;1.80;;;17.20;55.20;;;;;;5074051;28;20036;-65
2023/06/27 01:59:54;;;;;;;2.45;1.42;;;17.20;55.30;;;;;;5073725;28;20040;-65
2023/06/27 02:02:20;;;;;;;2.90;1.60;;;17.10;55.20;;;;;;5055626;28;20036;-65
2023/06/27 02:04:45;;;;;;;3.42;1.70;;;17.10;55.30;;;;;;5038818;28;20040;-65
2023/06/27 02:07:11;;;;;;;2.63;1.63;;;17.10;55.20;;;;;;5073727;28;20438;-65
2023/06/27 02:09:37;;;;;;;2.42;1.60;;;17.10;55.20;;;;;;5039168;28;20475;-65
2023/06/27 02:12:04;;;;;;;3.30;1.77;;;17.10;55.30;;;;;;5055408;28;20040;-65
2023/06/27 02:14:33;;;;;;;2.50;2.08;;;17.10;55.30;;;;;;5039207;28;20033;-65
2023/06/27 02:16:58;;;;;;;3.60;2.13;;;17.00;55.40;;;;;;5055047;28;20032;-65
2023/06/27 02:19:24;;;;;;;3.15;1.40;;;17.00;55.40;;;;;;5055166;28;20037;-65
2023/06/27 02:21:50;;;;;;;2.72;1.85;;;17.00;55.40;;;;;;5056091;28;20039;-65
2023/06/27 02:24:16;;;;;;;3.83;1.63;;;17.00;55.40;;;;;;5055201;28;20097;-65
2023/06/27 02:26:43;;;;;;;3.08;1.73;;;17.00;55.50;;;;;;5055552;28;20120;-65
2023/06/27 02:29:09;;;;;;;6.18;1.75;;;17.00;55.60;;;;;;5038529;28;20079;-65
2023/06/27 02:31:35;;;;;;;2.78;1.85;;;17.00;55.70;;;;;;5055406;28;20071;-65
2023/06/27 02:34:01;;;;;;;2.65;1.40;;;16.90;55.70;;;;;;5055193;28;20041;-65
2023/06/27 02:36:27;;;;;;;3.95;2.10;;;16.90;55.70;;;;;;5038755;28;20424;-65
2023/06/27 02:38:58;;;;;;;3.55;2.10;;;16.90;55.90;;;;;;5055082;28;20571;-65
2023/06/27 02:41:24;;;;;;;3.42;2.03;;;16.90;56.00;;;;;;5055211;28;20059;-66
2023/06/27 02:43:50;;;;;;;3.10;2.13;;;16.80;55.90;;;;;;5054781;28;20080;-67
2023/06/27 02:46:16;;;;;;;4.68;2.10;;;16.80;55.90;;;;;;5055189;28;20084;-67
2023/06/27 02:48:42;;;;;;;3.08;1.92;;;16.80;56.10;;;;;;5054977;28;20414;-67
2023/06/27 02:51:08;;;;;;;4.93;1.77;;;16.80;56.10;;;;;;5072626;28;20051;-66
2023/06/27 02:53:34;;;;;;;3.22;1.50;;;16.80;56.20;;;;;;5055051;28;20103;-66
2023/06/27 02:56:02;;;;;;;4.13;1.73;;;16.80;56.20;;;;;;5038368;28;20563;-66
2023/06/27 02:58:32;;;;;;;2.78;1.63;;;16.70;56.30;;;;;;5054474;28;20048;-66
2023/06/27 03:01:03;;;;;;;2.35;1.80;;;16.70;56.40;;;;;;5054679;28;20501;-66
2023/06/27 03:03:29;;;;;;;3.00;1.67;;;16.70;56.50;;;;;;5054241;28;20053;-66
2023/06/27 03:05:55;;;;;;;2.97;1.85;;;16.70;56.60;;;;;;5054581;28;20070;-66
2023/06/27 03:08:21;;;;;;;2.42;1.48;;;16.60;56.70;;;;;;5054553;28;20067;-67
2023/06/27 03:10:46;;;;;;;2.40;1.70;;;16.60;56.70;;;;;;5054705;28;20051;-67
2023/06/27 03:13:12;;;;;;;6.13;2.20;;;16.60;56.90;;;;;;5054934;28;20123;-67
2023/06/27 03:15:38;;;;;;;3.42;1.85;;;16.60;57.10;;;;;;5037806;28;20414;-67
2023/06/27 03:18:03;;;;;;;4.50;1.90;;;16.60;57.10;;;;;;5055004;28;20044;-67
2023/06/27 03:20:29;;;;;;;3.00;2.38;;;16.60;57.30;;;;;;5072098;28;20124;-67
2023/06/27 03:22:55;;;;;;;3.20;1.92;;;16.50;57.30;;;;;;5054505;28;20041;-67
2023/06/27 03:25:21;;;;;;;4.47;2.10;;;16.50;57.20;;;;;;5054808;28;20142;-67
2023/06/27 03:27:46;;;;;;;4.68;2.80;;;16.50;57.40;;;;;;5071588;28;20475;-67
2023/06/27 03:30:13;;;;;;;4.25;1.90;;;16.50;57.50;;;;;;5021307;28;20044;-67
2023/06/27 03:32:39;;;;;;;4.10;2.03;;;16.50;57.50;;;;;;5054297;28;20487;-67
2023/06/27 03:35:05;;;;;;;3.63;2.33;;;16.50;57.60;;;;;;5037722;28;20044;-67
2023/06/27 03:37:31;;;;;;;3.08;2.13;;;16.50;57.70;;;;;;5054416;28;20081;-67
2023/06/27 03:39:57;;;;;;;3.22;2.25;;;16.50;57.80;;;;;;5072038;28;20044;-67
2023/06/27 03:42:23;;;;;;;7.97;2.70;;;16.50;57.80;;;;;;5071823;28;20121;-67
2023/06/27 03:44:49;;;;;;;4.75;2.08;;;16.50;58.00;;;;;;5054473;28;20055;-67
2023/06/27 03:47:16;;;;;;;4.32;1.98;;;16.50;58.50;;;;;;5037590;28;20040;-67
2023/06/27 03:49:41;;;;;;;3.90;1.90;;;16.50;58.20;;;;;;5038060;28;20041;-67
2023/06/27 03:52:07;;;;;;;3.78;1.92;;;16.50;58.30;;;;;;5054037;28;20510;-67
2023/06/27 03:54:33;;;;;;;4.45;2.67;;;16.50;58.40;;;;;;5054619;28;20037;-67
2023/06/27 03:56:59;;;;;;;5.88;3.35;;;16.50;58.50;;;;;;5053755;28;20414;-67
2023/06/27 03:59:24;;;;;;;4.45;2.92;;;16.50;58.70;;;;;;5054032;28;20076;-67
2023/06/27 04:01:50;;;;;;;8.63;3.10;;;16.50;59.00;;;;;;5054088;28;20472;-67
2023/06/27 04:04:16;;;;;;;4.50;2.92;;;16.50;59.10;;;;;;5053302;28;20052;-67
2023/06/27 04:06:42;;;;;;;6.47;3.80;;;16.50;59.20;;;;;;5054227;28;20043;-67
2023/06/27 04:09:07;;;;;;;6.65;2.97;;;16.50;59.50;;;;;;5071681;28;20033;-67
2023/06/27 04:11:33;;;;;;;4.43;2.47;;;16.50;59.60;;;;;;5054188;28;20041;-67
2023/06/27 04:13:59;;;;;;;3.25;2.35;;;16.60;59.60;;;;;;5053825;28;20115;-67
2023/06/27 04:16:28;;;;;;;4.80;2.80;;;16.60;59.60;;;;;;5053807;28;20060;-67
2023/06/27 04:18:54;;;;;;;4.55;3.00;;;16.60;59.70;;;;;;5071768;28;20402;-67
2023/06/27 04:21:21;;;;;;;5.57;3.97;;;16.60;60.00;;;;;;5054059;28;20045;-67
2023/06/27 04:23:47;;;;;;;5.63;3.45;;;16.60;60.50;;;;;;5053842;28;20158;-67
2023/06/27 04:26:17;;;;;;;5.28;3.10;;;16.60;61.10;;;;;;5053971;28;20486;-68
2023/06/27 04:28:43;;;;;;;4.40;3.83;;;16.60;61.30;;;;;;5053865;28;20071;-68
2023/06/27 04:31:09;;;;;;;5.55;3.28;;;16.60;61.40;;;;;;5053629;28;20052;-68
2023/06/27 04:33:39;;;;;;;4.45;3.30;;;16.60;61.70;;;;;;5053822;28;20051;-68
2023/06/27 04:36:06;;;;;;;3.67;2.50;;;16.70;61.60;;;;;;5053724;28;20049;-67
2023/06/27 04:38:39;;;;;;;4.93;3.28;;;16.70;61.50;;;;;;5054731;28;20044;-67
2023/06/27 04:41:05;;;;;;;5.88;2.92;;;16.70;61.60;;;;;;5057531;28;20036;-67
2023/06/27 04:43:32;;;;;;;5.57;3.17;;;16.70;61.60;;;;;;5075435;28;20044;-67
2023/06/27 04:45:59;;;;;;;7.45;3.58;;;16.70;62.20;;;;;;5041029;28;20048;-67
2023/06/27 04:48:25;;;;;;;6.53;3.72;;;16.80;62.80;;;;;;5040457;28;20468;-67
2023/06/27 04:50:50;;;;;;;5.50;3.35;;;16.80;63.10;;;;;;5057177;28;20068;-68
2023/06/27 04:53:19;;;;;;;6.70;3.75;;;16.80;63.10;;;;;;5057356;28;20051;-68
2023/06/27 04:55:46;;;;;;;8.88;3.80;;;16.90;63.60;;;;;;5041017;28;20048;-68
2023/06/27 04:58:11;;;;;;;4.75;3.13;;;16.90;63.60;;;;;;5055709;28;20098;-68
2023/06/27 05:00:37;;;;;;;7.25;3.35;;;16.90;63.70;;;;;;5057400;28;20038;-68
2023/06/27 05:03:03;;;;;;;5.65;3.25;;;16.90;63.60;;;;;;5056631;28;20052;-66
2023/06/27 05:05:33;;;;;;;5.75;3.17;;;17.00;64.00;;;;;;5055254;28;20131;-68
2023/06/27 05:08:01;;;;;;;7.35;3.75;;;17.00;64.40;;;;;;5053309;28;20115;-68
2023/06/27 05:10:27;;;;;;;8.63;3.08;;;17.10;65.00;;;;;;5040388;28;20078;-68
2023/06/27 05:12:52;;;;;;;8.38;3.65;;;17.10;65.50;;;;;;5075098;28;20064;-68
2023/06/27 05:15:18;;;;;;;7.88;3.53;;;17.20;66.50;;;;;;5056654;28;20098;-68
2023/06/27 05:17:51;;;;;;;5.82;2.67;;;17.40;67.10;;;;;;5056445;28;20086;-68
2023/06/27 05:20:17;;;;;;;8.82;3.15;;;17.70;67.30;;;;;;5056748;28;20044;-68
2023/06/27 05:22:43;;;;;;;6.43;2.95;;;18.00;67.20;;;;;;5048634;28;20048;-68
2023/06/27 05:25:09;;;;;;;6.55;2.50;;;18.50;66.80;;;;;;5056802;28;20045;-68
2023/06/27 05:27:34;;;;;;;7.38;3.50;;;18.90;65.30;;;;;;5056468;28;20472;-68
2023/06/27 05:30:00;;;;;;;7.53;3.10;;;19.40;64.70;;;;;;5056748;28;20033;-68
2023/06/27 05:32:26;;;;;;;6.80;2.40;;;19.90;63.00;;;;;;5054836;28;20044;-68
2023/06/27 05:34:53;;;;;;;5.72;2.58;;;20.40;61.40;;;;;;5056595;28;20060;-68
2023/06/27 05:37:19;;;;;;;5.38;2.22;;;21.00;60.20;;;;;;5055738;28;20467;-68
2023/06/27 05:39:45;;;;;;;4.93;2.08;;;21.50;58.90;;;;;;5069050;28;20029;-68
2023/06/27 05:42:10;;;;;;;7.10;2.40;;;22.00;58.10;;;;;;5055432;28;20175;-68
2023/06/27 05:44:36;;;;;;;5.55;1.85;;;22.50;57.20;;;;;;5074272;28;20483;-68
2023/06/27 05:47:02;;;;;;;5.55;2.10;;;22.80;56.10;;;;;;5056018;28;20123;-68
2023/06/27 05:49:28;;;;;;;5.18;1.48;;;23.30;54.80;;;;;;5056027;28;20044;-68
2023/06/27 05:51:53;;;;;;;4.25;1.50;;;23.70;53.30;;;;;;5038842;28;20158;-68
2023/06/27 05:54:19;;;;;;;3.70;1.30;;;24.00;52.60;;;;;;5056425;28;20094;-68
2023/06/27 05:56:45;;;;;;;3.60;1.35;;;24.30;51.90;;;;;;5056324;28;20043;-68
2023/06/27 05:59:10;;;;;;;4.72;1.40;;;24.50;50.70;;;;;;5055985;28;20067;-68
2023/06/27 06:01:37;;;;;;;3.08;1.30;;;24.80;50.00;;;;;;5074160;28;20037;-68
2023/06/27 06:04:04;;;;;;;4.40;1.55;;;25.00;49.40;;;;;;5035206;28;20132;-68
2023/06/27 06:06:33;;;;;;;3.80;1.17;;;25.20;48.90;;;;;;5052540;28;20039;-68
2023/06/27 06:08:59;;;;;;;4.18;1.30;;;25.50;48.70;;;;;;5052755;28;20036;-68
2023/06/27 06:11:25;;;;;;;5.93;1.80;;;25.70;47.40;;;;;;5053900;28;20040;-68
2023/06/27 06:13:50;;;;;;;5.40;1.52;;;25.90;46.40;;;;;;5053955;28;20080;-68
2023/06/27 06:16:16;;;;;;;4.50;1.13;;;26.10;45.80;;;;;;5035513;28;20041;-68
2023/06/27 06:18:42;;;;;;;4.75;1.27;;;26.20;45.70;;;;;;5049806;28;20040;-68
2023/06/27 06:21:07;;;;;;;4.68;1.20;;;26.40;45.60;;;;;;5050945;28;20040;-68
2023/06/27 06:23:33;;;;;;;5.90;1.20;;;26.70;45.50;;;;;;5035514;28;20045;-69
2023/06/27 06:25:59;;;;;;;3.35;1.42;;;27.00;44.40;;;;;;5052379;28;20039;-69
2023/06/27 06:28:24;;;;;;;4.68;1.10;;;27.30;44.00;;;;;;5052044;28;20037;-69
2023/06/27 06:30:50;;;;;;;3.80;1.02;;;27.50;43.40;;;;;;5052035;28;20121;-69
2023/06/27 06:33:16;;;;;;;5.93;1.10;;;27.70;42.80;;;;;;5052197;28;20099;-69
2023/06/27 06:35:41;;;;;;;4.68;1.30;;;27.80;41.90;;;;;;5053373;28;20098;-69
2023/06/27 06:38:07;;;;;;;4.60;1.45;;;28.00;41.90;;;;;;5052455;28;20052;-68
2023/06/27 06:40:33;;;;;;;5.22;1.00;;;28.10;41.30;;;;;;5053499;28;20036;-68
2023/06/27 06:42:58;;;;;;;2.53;0.80;;;28.20;40.30;;;;;;5052030;28;20040;-69
2023/06/27 06:45:24;;;;;;;3.38;1.10;;;28.20;39.90;;;;;;5052128;28;20036;-69
2023/06/27 06:47:51;;;;;;;3.53;1.17;;;28.20;39.30;;;;;;5051975;28;20457;-69
2023/06/27 06:50:17;;;;;;;3.35;0.95;;;28.10;38.70;;;;;;5051911;28;20124;-68
2023/06/27 06:52:43;;;;;;;5.07;1.50;;;28.00;38.80;;;;;;5051891;28;20125;-68
2023/06/27 06:55:09;;;;;;;4.88;1.00;;;27.90;38.80;;;;;;5051845;28;20060;-68
2023/06/27 06:57:34;;;;;;;2.65;1.00;;;27.80;38.70;;;;;;5051951;28;20045;-68
2023/06/27 07:00:00;;;;;;;3.30;1.00;;;27.60;38.50;;;;;;5051624;28;20037;-68
2023/06/27 07:02:26;;;;;;;3.90;1.25;;;27.40;38.50;;;;;;5051785;28;20040;-68
2023/06/27 07:04:52;;;;;;;2.55;0.80;;;27.20;38.50;;;;;;5071888;28;20049;-68
2023/06/27 07:07:17;;;;;;;5.60;1.35;;;27.10;38.60;;;;;;5054731;28;20052;-68
2023/06/27 07:09:43;;;;;;;3.03;0.73;;;26.90;38.60;;;;;;5038349;28;20078;-68
2023/06/27 07:12:09;;;;;;;4.55;0.88;;;26.70;38.60;;;;;;5054466;28;20036;-68
2023/06/27 07:14:34;;;;;;;2.92;0.90;;;26.50;38.50;;;;;;5038191;28;20133;-68
2023/06/27 07:17:00;;;;;;;1.65;0.80;;;26.30;38.60;;;;;;5054979;28;20052;-68
2023/06/27 07:19:26;;;;;;;3.13;0.88;;;26.10;38.80;;;;;;5072494;28;20426;-68
2023/06/27 07:21:52;;;;;;;5.90;0.98;;;25.90;38.80;;;;;;5054735;28;20072;-68
2023/06/27 07:24:18;;;;;;;3.92;0.98;;;25.70;38.90;;;;;;5037738;28;20076;-68
2023/06/27 07:26:43;;;;;;;3.25;1.00;;;25.60;39.20;;;;;;5037767;28;20043;-68
2023/06/27 07:29:10;;;;;;;4.63;1.33;;;25.50;39.20;;;;;;5072433;28;20105;-68
2023/06/27 07:31:36;;;;;;;3.75;1.20;;;25.30;39.00;;;;;;5054378;28;20514;-68
2023/06/27 07:34:02;;;;;;;3.53;0.93;;;25.20;39.10;;;;;;5054618;28;20032;-68
2023/06/27 07:36:27;;;;;;;4.20;1.00;;;25.10;39.30;;;;;;5054811;28;20048;-68
2023/06/27 07:38:53;;;;;;;3.75;0.90;;;24.90;39.30;;;;;;5054225;28;20076;-68
2023/06/27 07:41:19;;;;;;;3.28;0.90;;;24.80;39.20;;;;;;5054378;28;20109;-68
2023/06/27 07:43:45;;;;;;;3.17;0.98;;;24.60;39.30;;;;;;5037704;28;20067;-68
2023/06/27 07:46:11;;;;;;;5.03;1.00;;;24.50;39.40;;;;;;5054541;28;20039;-68
2023/06/27 07:48:36;;;;;;;3.55;1.00;;;24.30;39.70;;;;;;5054535;28;20041;-68
2023/06/27 07:51:02;;;;;;;4.13;1.10;;;24.20;40.30;;;;;;5054002;28;20120;-68
2023/06/27 07:53:28;;;;;;;3.17;1.08;;;24.20;40.60;;;;;;5054492;28;20048;-68
2023/06/27 07:55:54;;;;;;;3.20;0.90;;;24.00;40.60;;;;;;5072111;28;20036;-68
2023/06/27 07:58:19;;;;;;;2.40;0.85;;;24.00;40.80;;;;;;5054327;28;20498;-67
2023/06/27 08:00:45;;;;;;;3.80;1.20;;;24.00;40.90;;;;;;5037638;28;20051;-67
2023/06/27 08:03:11;;;;;;;2.20;0.80;;;24.00;41.50;;;;;;5053656;28;20126;-68
2023/06/27 08:05:38;;;;;;;3.33;1.00;;;24.00;41.20;;;;;;5054544;28;20493;-67
2023/06/27 08:08:04;;;;;;;6.22;0.88;;;24.00;41.10;;;;;;5054237;28;20043;-68
2023/06/27 08:10:30;;;;;;;5.68;1.40;;;24.10;41.40;;;;;;5072106;28;20064;-68
2023/06/27 08:12:56;;;;;;;2.60;0.88;;;24.10;40.90;;;;;;5054335;28;20444;-68
2023/06/27 08:15:24;;;;;;;3.67;1.20;;;24.20;40.60;;;;;;5057759;28;20071;-68
2023/06/27 08:17:50;;;;;;;3.10;0.85;;;24.30;40.70;;;;;;5053069;28;20122;-68
2023/06/27 08:20:16;;;;;;;2.60;0.90;;;24.40;40.60;;;;;;5057736;28;20052;-68
2023/06/27 08:22:41;;;;;;;7.78;1.45;;;24.50;39.90;;;;;;5076039;28;20044;-68
2023/06/27 08:25:07;;;;;;;3.33;0.70;;;24.60;40.50;;;;;;5058120;28;20028;-68
2023/06/27 08:27:33;;;;;;;2.95;0.85;;;24.70;40.60;;;;;;5075844;28;20039;-68
2023/06/27 08:29:59;;;;;;;3.67;1.00;;;24.80;40.60;;;;;;5058051;28;20039;-68
2023/06/27 08:32:24;;;;;;;4.18;1.10;;;25.00;40.20;;;;;;5057642;28;20040;-68
2023/06/27 08:34:50;;;;;;;3.08;1.10;;;25.20;40.00;;;;;;5057601;28;20028;-67
2023/06/27 08:37:15;;;;;;;3.63;0.88;;;25.40;39.70;;;;;;5058085;28;20040;-67
2023/06/27 08:39:41;;;;;;;4.93;1.13;;;25.60;39.40;;;;;;5075436;28;20111;-67
2023/06/27 08:42:07;;;;;;;6.25;1.35;;;25.70;39.00;;;;;;5057569;28;20115;-67
2023/06/27 08:44:33;;;;;;;2.85;0.70;;;25.80;39.00;;;;;;5057599;28;20048;-67
2023/06/27 08:47:04;;;;;;;3.58;1.10;;;25.80;38.80;;;;;;5057274;28;20048;-67
2023/06/27 08:49:33;;;;;;;6.38;0.98;;;25.80;38.70;;;;;;5075357;28;20173;-67
2023/06/27 08:52:02;;;;;;;4.38;1.55;;;25.90;38.60;;;;;;5057445;28;20158;-67
2023/06/27 08:54:42;;;;;;;3.03;0.77;;;25.80;38.50;;;;;;5056611;28;20608;-67
2023/06/27 08:57:11;;;;;;;3.25;0.93;;;25.80;38.40;;;;;;5056978;28;20040;-67
2023/06/27 08:59:37;;;;;;;3.20;0.80;;;25.70;38.50;;;;;;5040973;28;20044;-67
2023/06/27 09:02:06;;;;;;;4.30;1.10;;;25.70;38.80;;;;;;5057014;28;20041;-67
2023/06/27 09:04:33;;;;;;;3.20;0.98;;;25.70;39.00;;;;;;5056813;28;20197;-67
2023/06/27 09:07:03;;;;;;;2.97;0.93;;;25.60;39.00;;;;;;5074918;28;20039;-67
2023/06/27 09:09:30;;;;;;;3.38;1.38;;;25.60;39.20;;;;;;5049489;28;20475;-67
2023/06/27 09:12:00;;;;;;;2.85;1.00;;;25.50;39.50;;;;;;5075187;28;20037;-67
2023/06/27 09:14:26;;;;;;;3.15;0.88;;;25.50;39.60;;;;;;5057052;28;20040;-67
2023/06/27 09:16:52;;;;;;;3.65;0.93;;;25.40;39.50;;;;;;5040680;28;20482;-67
2023/06/27 09:19:18;;;;;;;3.30;0.93;;;25.40;39.80;;;;;;5040121;28;20056;-67
2023/06/27 09:21:47;;;;;;;5.63;0.80;;;25.30;39.60;;;;;;5057031;28;20479;-67
2023/06/27 09:24:14;;;;;;;3.72;0.82;;;25.30;39.70;;;;;;5056546;28;20446;-67
2023/06/27 09:26:40;;;;;;;4.47;1.02;;;25.20;39.70;;;;;;5047731;28;20032;-67
2023/06/27 09:29:06;;;;;;;3.60;0.95;;;25.20;39.90;;;;;;5040285;28;20087;-67
2023/06/27 09:31:33;;;;;;;3.20;0.88;;;25.20;39.90;;;;;;5054920;28;20076;-67
2023/06/27 09:34:09;;;;;;;3.30;0.80;;;25.10;40.20;;;;;;5053792;28;20048;-67
2023/06/27 09:36:41;;;;;;;5.53;1.00;;;25.20;40.20;;;;;;5050401;28;20047;-67
2023/06/27 09:39:12;;;;;;;4.90;1.15;;;25.20;40.30;;;;;;5051062;28;20045;-67
2023/06/27 09:41:45;;;;;;;4.05;1.00;;;25.20;40.40;;;;;;5048954;28;20071;-67
2023/06/27 09:44:14;;;;;;;3.38;1.05;;;25.20;40.40;;;;;;5056281;28;20454;-67
2023/06/27 09:46:45;;;;;;;2.88;1.10;;;25.20;40.20;;;;;;5039810;28;20462;-67
2023/06/27 09:49:11;;;;;;;3.75;1.08;;;25.20;40.40;;;;;;5056522;28;20033;-67
2023/06/27 09:51:37;;;;;;;4.30;1.20;;;25.20;40.50;;;;;;5055650;28;20123;-67
2023/06/27 09:54:04;;;;;;;3.17;0.77;;;25.30;40.60;;;;;;5055536;28;20041;-67
2023/06/27 09:56:33;;;;;;;2.58;0.90;;;25.30;40.70;;;;;;5056502;28;20045;-67
2023/06/27 09:59:10;;;;;;;5.63;1.15;;;25.30;40.50;;;;;;5038784;28;20048;-67
2023/06/27 10:01:37;;;;;;;4.00;1.10;;;25.40;40.50;;;;;;5056158;28;20043;-67
2023/06/27 10:04:04;;;;;;;4.70;1.13;;;25.50;40.60;;;;;;5055837;28;20076;-68
2023/06/27 10:06:31;;;;;;;3.67;0.80;;;25.50;40.70;;;;;;5055919;28;20037;-68
2023/06/27 10:08:57;;;;;;;4.85;1.35;;;25.50;40.70;;;;;;5039379;28;20119;-68
2023/06/27 10:11:24;;;;;;;5.45;1.00;;;25.60;41.00;;;;;;5039336;28;20044;-68
2023/06/27 10:13:51;;;;;;;3.05;1.15;;;25.70;41.10;;;;;;5054180;28;20445;-68
2023/06/27 10:16:18;;;;;;;3.83;0.95;;;25.70;40.90;;;;;;5048707;28;20068;-67
2023/06/27 10:18:44;;;;;;;3.15;0.93;;;25.80;40.90;;;;;;5055264;28;20654;-67
2023/06/27 10:21:11;;;;;;;3.38;1.00;;;25.90;40.60;;;;;;5055762;28;20086;-68
2023/06/27 10:23:41;;;;;;;6.50;1.20;;;26.10;40.30;;;;;;5055750;28;20040;-67
2023/06/27 10:26:09;;;;;;;5.85;1.20;;;26.20;40.20;;;;;;5055603;28;20097;-67
2023/06/27 10:28:34;;;;;;;5.53;1.38;;;26.20;40.10;;;;;;5055795;28;20039;-66
2023/06/27 10:31:02;;;;;;;3.50;0.75;;;26.30;40.00;;;;;;5022508;28;20119;-67
2023/06/27 10:33:28;;;;;;;3.75;0.88;;;26.50;39.50;;;;;;5066226;28;20097;-67
2023/06/27 10:36:12;;;;;;;3.08;1.15;;;26.60;39.40;;;;;;5073338;28;20036;-67
2023/06/27 10:38:46;;;;;;;2.78;1.15;;;26.70;39.10;;;;;;5049053;28;20044;-67
2023/06/27 10:41:23;;;;;;;6.78;1.27;;;26.80;38.90;;;;;;5050965;28;20044;-67
2023/06/27 10:43:51;;;;;;;4.50;0.82;;;26.90;38.60;;;;;;5055557;28;20167;-67
2023/06/27 10:46:19;;;;;;;2.95;0.77;;;26.90;38.50;;;;;;5048324;28;20052;-67
2023/06/27 10:48:54;;;;;;;3.50;1.00;;;27.00;38.40;;;;;;5043638;28;20048;-67
2023/06/27 10:51:32;;;;;;;3.15;1.00;;;27.00;38.10;;;;;;5037163;28;20123;-67
2023/06/27 10:54:07;;;;;;;3.22;1.30;;;27.00;37.50;;;;;;5053085;28;20040;-67
2023/06/27 10:56:44;;;;;;;4.43;0.70;;;27.00;37.40;;;;;;5047036;28;20062;-66
2023/06/27 10:59:16;;;;;;;2.63;1.00;;;27.10;37.30;;;;;;5054723;28;20136;-67
2023/06/27 11:02:02;;;;;;;2.50;0.75;;;27.10;37.40;;;;;;5049481;28;20044;-67
2023/06/27 11:04:39;;;;;;;4.15;1.58;;;27.20;37.40;;;;;;5054513;28;20053;-66
2023/06/27 11:07:07;;;;;;;4.82;1.45;;;27.20;37.60;;;;;;5055150;28;20071;-66
2023/06/27 11:09:35;;;;;;;3.42;1.00;;;27.20;37.10;;;;;;5054591;28;20119;-66
2023/06/27 11:12:15;;;;;;;3.63;1.15;;;27.10;37.10;;;;;;5045115;28;20040;-66
2023/06/27 11:14:45;;;;;;;4.47;1.00;;;27.10;37.40;;;;;;5038181;28;20079;-66
2023/06/27 11:17:12;;;;;;;4.22;1.00;;;27.00;37.20;;;;;;5037615;28;20484;-66
2023/06/27 11:19:39;;;;;;;3.53;1.10;;;26.90;37.20;;;;;;5037646;28;20068;-66
2023/06/27 11:22:06;;;;;;;3.70;0.82;;;26.90;37.30;;;;;;5026269;28;20040;-67
2023/06/27 11:24:32;;;;;;;2.25;1.08;;;26.80;37.70;;;;;;5038821;28;20051;-66
2023/06/27 11:27:00;;;;;;;6.03;1.30;;;26.80;37.80;;;;;;5041220;28;20383;-66
2023/06/27 11:29:27;;;;;;;5.28;1.35;;;26.70;37.70;;;;;;5038566;28;20049;-66
2023/06/27 11:31:54;;;;;;;4.75;1.27;;;26.70;37.80;;;;;;5041548;28;20098;-66
2023/06/27 11:34:20;;;;;;;2.97;0.93;;;26.60;37.70;;;;;;5038431;28;20076;-66
2023/06/27 11:36:46;;;;;;;2.45;0.90;;;26.60;37.90;;;;;;5039268;28;20068;-66
2023/06/27 11:39:13;;;;;;;3.95;0.93;;;26.60;38.10;;;;;;5021961;28;20475;-66
2023/06/27 11:41:44;;;;;;;3.40;0.90;;;26.60;38.00;;;;;;5039075;28;20135;-66
2023/06/27 11:44:16;;;;;;;3.97;1.13;;;26.50;37.60;;;;;;5039450;28;20079;-66
2023/06/27 11:46:49;;;;;;;3.28;0.75;;;26.50;37.70;;;;;;5036267;28;20041;-66
2023/06/27 11:49:16;;;;;;;3.42;0.68;;;26.50;37.70;;;;;;5035836;28;20088;-66
2023/06/27 11:51:42;;;;;;;3.50;0.80;;;26.40;37.00;;;;;;5038379;28;20055;-68
2023/06/27 11:54:08;;;;;;;4.10;1.00;;;26.30;36.80;;;;;;5023777;28;20107;-68
2023/06/27 11:56:38;;;;;;;4.50;1.00;;;26.30;37.10;;;;;;5041183;28;20124;-68
2023/06/27 11:59:06;;;;;;;3.15;0.85;;;26.30;37.10;;;;;;5042645;28;20047;-68
2023/06/27 12:01:33;;;;;;;2.35;0.85;;;26.20;37.20;;;;;;5039568;28;20139;-67
2023/06/27 12:04:01;;;;;;;3.92;1.10;;;26.20;37.00;;;;;;5028774;28;20496;-68
2023/06/27 12:06:33;;;;;;;2.65;1.05;;;26.20;36.90;;;;;;5024651;28;20049;-67
2023/06/27 12:08:59;;;;;;;3.77;0.87;;;26.10;36.90;;;;;;5008091;28;20069;-67
2023/06/27 12:11:34;;;;;;;2.90;0.70;;;26.10;37.20;;;;;;5024538;28;20679;-67
2023/06/27 12:14:01;;;;;;;3.78;0.93;;;26.10;37.30;;;;;;5024091;28;20117;-67
2023/06/27 12:16:29;;;;;;;2.70;0.80;;;26.00;37.50;;;;;;5024548;28;20050;-68
2023/06/27 12:19:08;;;;;;;3.80;0.68;;;26.10;37.70;;;;;;5025797;28;20045;-68
2023/06/27 12:21:35;;;;;;;5.15;0.80;;;26.10;37.60;;;;;;5024803;28;20037;-68
2023/06/27 12:24:01;;;;;;;3.00;1.00;;;26.00;37.60;;;;;;5024444;28;20045;-67
2023/06/27 12:26:26;;;;;;;2.83;0.90;;;26.10;37.60;;;;;;5024775;28;20053;-68
2023/06/27 12:28:55;;;;;;;4.55;0.90;;;26.00;37.40;;;;;;5008320;28;20041;-67
2023/06/27 12:31:21;;;;;;;4.13;0.90;;;26.10;37.40;;;;;;5024967;28;20044;-66
2023/06/27 12:33:46;;;;;;;4.82;0.90;;;26.00;37.30;;;;;;5024863;28;20477;-66
2023/06/27 12:36:14;;;;;;;4.35;0.70;;;26.00;37.30;;;;;;5007847;28;20489;-66
2023/06/27 12:38:40;;;;;;;2.13;0.80;;;25.90;36.90;;;;;;5024651;28;20052;-66
2023/06/27 12:41:06;;;;;;;3.40;1.15;;;25.80;36.70;;;;;;5023585;28;20038;-66
2023/06/27 12:43:31;;;;;;;1.98;0.70;;;25.80;36.80;;;;;;5023936;28;20045;-66
2023/06/27 12:46:01;;;;;;;5.47;1.48;;;25.70;37.20;;;;;;5024298;28;20042;-66
2023/06/27 12:48:27;;;;;;;3.33;0.95;;;25.70;37.70;;;;;;5025680;28;20469;-66